createdAt,value
2023-04-02T00:01:40.892Z,9.71
2023-04-02T00:05:52.596Z,9.76
2023-04-02T00:09:55.002Z,9.80
2023-04-02T00:14:04.856Z,9.82
2023-04-02T00:18:11.372Z,9.80
2023-04-02T00:22:21.072Z,9.81
2023-04-02T00:26:27.566Z,9.85
2023-04-02T00:30:31.484Z,9.87
2023-04-02T00:34:39.726Z,9.82
2023-04-02T00:38:55.597Z,9.84
2023-04-02T00:43:00.019Z,9.88
2023-04-02T00:47:10.412Z,9.98
2023-04-02T00:51:21.185Z,9.89
2023-04-02T00:55:26.644Z,9.96
2023-04-02T00:59:32.300Z,9.96
2023-04-02T01:03:39.073Z,10.02
2023-04-02T01:08:00.632Z,10.07
2023-04-02T01:12:21.785Z,10.04
2023-04-02T01:16:29.297Z,10.08
2023-04-02T01:20:54.354Z,10.10
2023-04-02T01:24:59.588Z,10.24
2023-04-02T01:29:12.758Z,10.26
2023-04-02T01:33:19.513Z,10.15
2023-04-02T01:37:38.802Z,10.12
2023-04-02T01:41:44.564Z,10.18
2023-04-02T01:45:47.181Z,10.11
2023-04-02T01:49:50.245Z,10.07
2023-04-02T01:53:56.931Z,10.01
2023-04-02T01:57:58.903Z,10.02
2023-04-02T02:02:06.673Z,9.95
2023-04-02T02:06:08.241Z,10.04
2023-04-02T02:10:08.818Z,9.94
2023-04-02T02:14:14.476Z,9.98
2023-04-02T02:18:27.569Z,9.99
2023-04-02T02:22:33.761Z,10.04
2023-04-02T02:26:37.399Z,9.98
2023-04-02T02:30:49.232Z,9.96
2023-04-02T02:34:58.855Z,9.90
2023-04-02T02:39:06.055Z,9.81
2023-04-02T02:43:19.484Z,9.79
2023-04-02T02:47:22.396Z,9.94
2023-04-02T02:51:29.850Z,9.76
2023-04-02T02:55:34.634Z,9.75
2023-04-02T02:59:41.405Z,9.80
2023-04-02T03:03:50.580Z,9.74
2023-04-02T03:07:54.171Z,9.77
2023-04-02T03:11:57.246Z,9.76
2023-04-02T03:16:06.425Z,9.78
2023-04-02T03:20:17.178Z,9.92
2023-04-02T03:24:22.283Z,9.94
2023-04-02T03:28:33.066Z,10.10
2023-04-02T03:32:36.009Z,10.16
2023-04-02T03:37:04.445Z,10.16
2023-04-02T03:41:11.282Z,10.08
2023-04-02T03:45:16.381Z,10.12
2023-04-02T03:49:19.736Z,10.06
2023-04-02T03:53:29.599Z,10.07
2023-04-02T03:57:37.914Z,9.99
2023-04-02T04:01:43.187Z,10.02
2023-04-02T04:05:50.767Z,10.04
2023-04-02T04:09:53.662Z,10.03
2023-04-02T04:13:59.529Z,10.05
2023-04-02T04:18:05.026Z,10.06
2023-04-02T04:22:14.323Z,10.08
2023-04-02T04:26:21.836Z,10.10
2023-04-02T04:30:28.607Z,10.15
2023-04-02T04:34:36.222Z,10.01
2023-04-02T04:38:39.882Z,10.04
2023-04-02T04:43:03.924Z,9.94
2023-04-02T04:47:12.352Z,9.84
2023-04-02T04:51:26.934Z,9.72
2023-04-02T04:55:42.409Z,9.75
2023-04-02T04:59:44.699Z,9.72
2023-04-02T05:03:54.702Z,9.77
2023-04-02T05:07:59.840Z,9.87
2023-04-02T05:12:10.841Z,9.88
2023-04-02T05:16:32.680Z,9.96
2023-04-02T05:20:37.141Z,9.94
2023-04-02T05:24:48.759Z,9.98
2023-04-02T05:28:53.502Z,10.03
2023-04-02T05:32:57.337Z,10.06
2023-04-02T05:37:01.073Z,10.00
2023-04-02T05:41:05.671Z,10.06
2023-04-02T05:45:11.016Z,10.17
2023-04-02T05:49:19.190Z,10.22
2023-04-02T05:53:26.130Z,10.24
2023-04-02T05:57:42.699Z,10.25
2023-04-02T06:02:03.084Z,10.29
2023-04-02T06:06:06.475Z,10.39
2023-04-02T06:10:16.409Z,10.36
2023-04-02T06:14:17.863Z,10.39
2023-04-02T06:18:21.973Z,10.55
2023-04-02T06:22:28.359Z,10.64
2023-04-02T06:26:35.452Z,10.52
2023-04-02T06:30:40.571Z,10.49
2023-04-02T06:34:42.840Z,10.61
2023-04-02T06:38:44.408Z,10.69
2023-04-02T06:42:47.757Z,10.76
2023-04-02T06:46:52.651Z,10.77
2023-04-02T06:51:00.709Z,10.93
2023-04-02T06:55:02.010Z,10.95
2023-04-02T06:59:07.246Z,11.01
2023-04-02T07:03:09.111Z,11.01
2023-04-02T07:07:11.798Z,11.27
2023-04-02T07:11:18.710Z,11.52
2023-04-02T07:15:25.655Z,11.64
2023-04-02T07:19:32.437Z,11.72
2023-04-02T07:23:35.436Z,11.76
2023-04-02T07:27:35.751Z,11.83
2023-04-02T07:31:41.980Z,12.00
2023-04-02T07:35:52.498Z,12.16
2023-04-02T07:40:04.898Z,12.24
2023-04-02T07:44:07.269Z,12.50
2023-04-02T07:48:12.098Z,12.47
2023-04-02T07:52:15.219Z,12.51
2023-04-02T07:56:37.975Z,12.46
2023-04-02T08:00:49.272Z,12.19
2023-04-02T08:04:52.884Z,12.31
2023-04-02T08:08:57.540Z,12.36
2023-04-02T08:13:03.081Z,12.08
2023-04-02T08:17:10.272Z,12.22
2023-04-02T08:21:45.721Z,12.37
2023-04-02T08:26:07.688Z,12.67
2023-04-02T08:30:14.798Z,12.78
2023-04-02T08:34:21.224Z,12.81
2023-04-02T08:38:42.547Z,12.78
2023-04-02T08:43:00.129Z,12.84
2023-04-02T08:47:08.844Z,12.97
2023-04-02T08:51:21.564Z,12.80
2023-04-02T08:55:56.307Z,12.96
2023-04-02T09:00:27.361Z,13.16
2023-04-02T09:04:37.945Z,13.30
2023-04-02T09:08:49.743Z,13.65
2023-04-02T09:12:58.675Z,13.64
2023-04-02T09:17:26.991Z,13.57
2023-04-02T09:26:11.360Z,14.00
2023-04-02T09:31:11.920Z,14.14
2023-04-02T09:35:34.488Z,14.07
2023-04-02T09:51:39.492Z,14.51
2023-04-02T10:02:03.344Z,14.23
2023-04-02T10:17:52.581Z,14.02
2023-04-02T11:12:18.036Z,16.05
2023-04-02T11:28:16.296Z,16.60
2023-04-02T11:32:36.702Z,17.30
2023-04-02T11:37:14.312Z,18.20
2023-04-02T11:41:48.645Z,18.43
2023-04-02T11:46:06.762Z,18.53
2023-04-02T11:50:10.005Z,18.72
2023-04-02T11:54:29.925Z,18.23
2023-04-02T11:58:54.529Z,18.44
2023-04-02T12:03:09.130Z,18.29
2023-04-02T12:07:26.398Z,18.13
2023-04-02T12:11:34.807Z,18.48
2023-04-02T12:15:49.693Z,18.25
2023-04-02T12:20:03.564Z,17.91
2023-04-02T12:24:08.687Z,18.21
2023-04-02T12:28:18.149Z,18.17
2023-04-02T12:32:30.594Z,18.33
2023-04-02T12:36:37.137Z,18.43
2023-04-02T12:40:38.413Z,18.17
2023-04-02T12:50:00.503Z,18.43
2023-04-02T12:54:06.158Z,19.00
2023-04-02T12:58:07.585Z,19.18
2023-04-02T13:02:25.021Z,19.22
2023-04-02T13:06:32.550Z,19.61
2023-04-02T13:10:36.080Z,19.97
2023-04-02T13:14:38.376Z,20.04
2023-04-02T13:18:52.379Z,19.21
2023-04-02T13:23:06.019Z,19.24
2023-04-02T13:27:19.722Z,19.13
2023-04-02T13:35:39.614Z,19.37
2023-04-02T13:39:43.088Z,19.94
2023-04-02T13:43:50.610Z,20.29
2023-04-02T13:47:52.838Z,20.34
2023-04-02T13:52:00.933Z,19.75
2023-04-02T13:56:03.557Z,19.54
2023-04-02T14:00:13.783Z,19.80
2023-04-02T14:04:28.431Z,20.31
2023-04-02T14:08:34.983Z,20.00
2023-04-02T14:12:44.963Z,20.19
2023-04-02T14:16:56.147Z,20.09
2023-04-02T14:21:06.834Z,20.21
2023-04-02T14:25:18.073Z,20.05
2023-04-02T14:29:23.637Z,19.95
2023-04-02T14:33:35.072Z,19.68
2023-04-02T14:37:38.220Z,19.79
2023-04-02T14:41:46.259Z,19.89
2023-04-02T14:45:56.181Z,19.82
2023-04-02T14:50:08.051Z,19.64
2023-04-02T14:54:12.208Z,19.61
2023-04-02T14:58:20.494Z,19.90
2023-04-02T15:02:26.891Z,19.83
2023-04-02T15:06:34.767Z,19.43
2023-04-02T15:10:41.159Z,19.45
2023-04-02T15:14:50.822Z,19.59
2023-04-02T15:19:00.360Z,19.57
2023-04-02T15:23:14.006Z,19.53
2023-04-02T15:27:28.548Z,19.38
2023-04-02T15:31:38.072Z,19.42
2023-04-02T15:35:40.596Z,19.27
2023-04-02T15:40:30.317Z,19.10
2023-04-02T15:44:36.376Z,19.18
2023-04-02T15:48:59.435Z,19.02
2023-04-02T15:53:07.754Z,19.15
2023-04-02T15:57:17.684Z,18.91
2023-04-02T16:01:32.945Z,19.12
2023-04-02T16:05:45.978Z,19.07
2023-04-02T16:09:54.426Z,19.01
2023-04-02T16:14:03.511Z,18.80
2023-04-02T16:18:10.776Z,18.71
2023-04-02T16:22:27.737Z,18.53
2023-04-02T16:26:36.721Z,18.60
2023-04-02T16:30:46.506Z,18.55
2023-04-02T16:35:05.057Z,18.39
2023-04-02T16:39:31.841Z,18.34
2023-04-02T16:43:36.883Z,18.27
2023-04-02T16:47:56.995Z,18.15
2023-04-02T16:52:15.030Z,18.06
2023-04-02T16:56:36.756Z,17.98
2023-04-02T17:05:06.150Z,17.80
2023-04-02T17:09:12.586Z,17.64
2023-04-02T17:13:21.041Z,17.55
2023-04-02T17:17:23.327Z,17.45
2023-04-02T17:21:29.757Z,17.40
2023-04-02T17:25:39.987Z,17.28
2023-04-02T17:29:41.381Z,17.11
2023-04-02T17:33:44.591Z,17.13
2023-04-02T17:37:54.444Z,17.11
2023-04-02T17:42:00.609Z,16.97
2023-04-02T17:46:13.179Z,16.82
2023-04-02T17:50:46.164Z,16.77
2023-04-02T17:54:51.672Z,16.61
2023-04-02T17:59:17.560Z,16.52
2023-04-02T18:03:58.878Z,16.55
2023-04-02T18:08:34.781Z,16.83
2023-04-02T18:12:59.618Z,16.88
2023-04-02T18:17:19.617Z,17.03
2023-04-02T18:21:59.185Z,17.03
2023-04-02T18:26:13.463Z,16.95
2023-04-02T18:30:20.580Z,16.31
2023-04-02T18:34:47.467Z,16.17
2023-04-02T18:38:49.961Z,16.01
2023-04-02T18:43:02.697Z,15.78
2023-04-02T18:47:08.421Z,15.61
2023-04-02T18:51:17.173Z,15.35
2023-04-02T18:55:18.453Z,14.32
2023-04-02T18:59:24.857Z,13.79
2023-04-02T19:03:29.427Z,13.85
2023-04-02T19:07:35.801Z,13.92
2023-04-02T19:11:39.984Z,13.93
2023-04-02T19:15:49.409Z,13.62
2023-04-02T19:20:03.038Z,13.17
2023-04-02T19:24:20.891Z,13.14
2023-04-02T19:28:28.489Z,13.16
2023-04-02T19:32:37.252Z,13.10
2023-04-02T19:36:41.735Z,13.03
2023-04-02T19:40:51.710Z,12.97
2023-04-02T19:44:54.411Z,12.97
2023-04-02T19:49:02.733Z,12.94
2023-04-02T19:53:03.782Z,12.65
2023-04-02T19:57:07.200Z,12.52
2023-04-02T20:01:07.844Z,12.34
2023-04-02T20:05:10.013Z,12.34
2023-04-02T20:09:14.146Z,12.44
2023-04-02T20:13:31.972Z,12.49
2023-04-02T20:17:41.854Z,12.42
2023-04-02T20:21:45.861Z,12.48
2023-04-02T20:25:54.177Z,12.61
2023-04-02T20:30:00.361Z,12.68
2023-04-02T20:34:02.833Z,12.58
2023-04-02T20:38:08.202Z,12.57
2023-04-02T20:42:10.059Z,12.52
2023-04-02T20:46:19.647Z,12.49
2023-04-02T20:50:20.272Z,12.67
2023-04-02T20:54:21.816Z,12.74
2023-04-02T20:58:25.735Z,12.74
2023-04-02T21:02:29.684Z,12.63
2023-04-02T21:06:31.518Z,12.64
2023-04-02T21:10:36.709Z,12.58
2023-04-02T21:14:47.886Z,12.64
2023-04-02T21:19:14.745Z,12.81
2023-04-02T21:23:23.758Z,13.07
2023-04-02T21:27:26.544Z,13.18
2023-04-02T21:31:28.573Z,13.04
2023-04-02T21:35:31.613Z,13.14
2023-04-02T21:39:32.051Z,13.15
2023-04-02T21:43:33.107Z,13.00
2023-04-02T21:47:35.382Z,13.08
2023-04-02T21:51:42.170Z,13.16
2023-04-02T21:55:42.909Z,13.10
2023-04-02T21:59:46.422Z,13.10
2023-04-02T22:03:47.789Z,13.05
2023-04-02T22:07:50.793Z,13.02
2023-04-02T22:11:59.565Z,12.99
2023-04-02T22:16:05.018Z,13.03
2023-04-02T22:20:11.371Z,12.92
2023-04-02T22:24:16.079Z,12.82
2023-04-02T22:28:16.828Z,12.73
2023-04-02T22:32:18.829Z,12.73
2023-04-02T22:36:20.766Z,12.70
2023-04-02T22:40:26.120Z,12.64
2023-04-02T22:44:30.446Z,12.61
2023-04-02T22:48:31.405Z,12.55
2023-04-02T22:52:31.900Z,12.48
2023-04-02T22:56:49.547Z,12.49
2023-04-02T23:00:55.275Z,12.35
2023-04-02T23:04:58.149Z,12.28
2023-04-02T23:08:59.401Z,12.30
2023-04-02T23:13:13.238Z,12.36
2023-04-02T23:17:28.260Z,12.33
2023-04-02T23:21:30.396Z,12.30
2023-04-02T23:25:34.713Z,12.15
2023-04-02T23:29:50.420Z,12.13
2023-04-02T23:33:51.167Z,12.12
2023-04-02T23:37:57.845Z,12.07
2023-04-02T23:41:59.314Z,11.98
2023-04-02T23:46:10.095Z,11.92
2023-04-02T23:50:11.857Z,11.89
2023-04-02T23:54:20.797Z,11.99
2023-04-02T23:58:27.785Z,11.92
